Time;durP1;ratioP1;P1;durP2;ratioP2;P2;SDS_P1;SDS_P2;PMS_P1;PMS_P2;Temp;Humidity;BMP_temperature;BMP_pressure;BME280_temperature;BME280_humidity;BME280_pressure;Samples;Min_cycle;Max_cycle;Signal;HPM_P1;HPM_P2
2024/01/30 00:00:59;;;;;;;;;;;;;;;21.75;20.61;99873.28;4978160;28;994;-72
2024/01/30 00:03:24;;;;;;;;;;;;;;;21.63;20.57;99872.84;4978469;28;1107;-73
2024/01/30 00:05:50;;;;;;;;;;;;;;;21.84;20.52;99873.72;4962427;28;947;-72
2024/01/30 00:08:15;;;;;;;;;;;;;;;21.76;20.31;99877.75;4978345;28;1055;-72
2024/01/30 00:10:41;;;;;;;;;;;;;;;21.69;20.64;99885.41;4977623;28;1995;-72
2024/01/30 00:13:06;;;;;;;;;;;;;;;21.79;20.48;99885.44;4964005;28;1044;-72
2024/01/30 00:15:32;;;;;;;;;;;;;;;21.73;20.28;99887.03;4958861;28;1074;-73
2024/01/30 00:17:58;;;;;;;;;;;;;;;21.70;20.48;99879.34;4958511;28;1018;-72
2024/01/30 00:20:23;;;;;;;;;;;;;;;21.79;20.59;99885.44;4958841;28;1094;-72
2024/01/30 00:22:49;;;;;;;;;;;;;;;21.76;20.24;99880.59;4976331;28;1097;-72
2024/01/30 00:25:14;;;;;;;;;;;;;;;21.67;20.52;99871.66;5013643;28;1053;-72
2024/01/30 00:27:40;;;;;;;;;;;;;;;21.45;20.51;99881.28;5040723;28;966;-72
2024/01/30 00:30:06;;;;;;;;;;;;;;;21.42;20.92;99882.91;5000709;28;1975;-72
2024/01/30 00:32:32;;;;;;;;;;;;;;;21.38;21.13;99886.91;5034870;28;1004;-72
2024/01/30 00:34:57;;;;;;;;;;;;;;;21.36;20.92;99881.66;5034829;28;1107;-72
2024/01/30 00:37:23;;;;;;;;;;;;;;;21.59;20.59;99878.50;5034533;28;893;-72
2024/01/30 00:39:48;;;;;;;;;;;;;;;21.55;20.59;99881.34;5035978;28;1026;-72
2024/01/30 00:42:14;;;;;;;;;;;;;;;21.53;20.82;99877.25;5018170;28;2048;-73
2024/01/30 00:44:40;;;;;;;;;;;;;;;21.43;20.89;99883.69;5034575;28;975;-72
2024/01/30 00:47:05;;;;;;;;;;;;;;;21.59;20.45;99882.13;5035656;28;930;-72
2024/01/30 00:49:31;;;;;;;;;;;;;;;21.80;20.29;99875.72;5034654;28;1143;-72
2024/01/30 00:51:56;;;;;;;;;;;;;;;22.03;20.28;99871.72;5034250;28;1906;-73
2024/01/30 00:54:22;;;;;;;;;;;;;;;21.87;20.35;99874.13;5034649;28;1023;-73
2024/01/30 00:56:47;;;;;;;;;;;;;;;21.76;20.54;99865.56;5035699;28;899;-72
2024/01/30 00:59:13;;;;;;;;;;;;;;;21.74;20.30;99866.00;5035563;28;1001;-72
2024/01/30 01:01:39;;;;;;;;;;;;;;;21.65;20.32;99874.06;5034462;28;979;-72
2024/01/30 01:04:04;;;;;;;;;;;;;;;21.77;20.47;99870.88;5034585;28;868;-73
2024/01/30 01:06:30;;;;;;;;;;;;;;;21.87;20.45;99882.63;5034736;28;1242;-73
2024/01/30 01:08:55;;;;;;;;;;;;;;;21.94;20.50;99871.31;5035734;28;975;-72
2024/01/30 01:11:21;;;;;;;;;;;;;;;22.05;20.10;99874.97;5035499;28;1969;-72
2024/01/30 01:13:46;;;;;;;;;;;;;;;21.78;20.40;99866.00;5034349;28;1014;-72
2024/01/30 01:16:12;;;;;;;;;;;;;;;21.47;20.79;99873.19;5033973;28;1129;-72
2024/01/30 01:18:37;;;;;;;;;;;;;;;21.36;21.09;99861.03;5034170;28;903;-72
2024/01/30 01:21:03;;;;;;;;;;;;;;;21.75;20.72;99864.78;5036177;28;1044;-72
2024/01/30 01:23:28;;;;;;;;;;;;;;;21.52;20.70;99859.47;5038463;28;980;-73
2024/01/30 01:25:55;;;;;;;;;;;;;;;21.60;20.71;99865.94;5039148;28;1162;-72
2024/01/30 01:28:20;;;;;;;;;;;;;;;21.95;20.17;99853.06;5000767;28;1022;-72
2024/01/30 01:30:46;;;;;;;;;;;;;;;21.87;20.50;99848.63;5000545;28;1898;-72
2024/01/30 01:33:14;;;;;;;;;;;;;;;21.72;20.37;99851.44;4984297;28;1246;-72
2024/01/30 01:35:40;;;;;;;;;;;;;;;21.87;20.34;99837.28;5001271;28;940;-72
2024/01/30 01:38:05;;;;;;;;;;;;;;;21.65;20.70;99850.59;5000638;28;1031;-73
2024/01/30 01:40:31;;;;;;;;;;;;;;;21.29;21.21;99834.25;5000769;28;1002;-72
2024/01/30 01:42:56;;;;;;;;;;;;;;;21.53;20.83;99827.09;5000716;28;981;-72
2024/01/30 01:45:22;;;;;;;;;;;;;;;21.80;20.32;99830.38;5000630;28;1373;-72
2024/01/30 01:47:48;;;;;;;;;;;;;;;21.36;20.88;99832.72;4984141;28;1104;-72
2024/01/30 01:50:14;;;;;;;;;;;;;;;21.74;20.36;99832.00;5000636;28;1969;-72
2024/01/30 01:52:40;;;;;;;;;;;;;;;21.72;20.39;99820.25;4984340;28;968;-72
2024/01/30 01:55:06;;;;;;;;;;;;;;;21.81;20.47;99834.00;4984185;28;978;-72
2024/01/30 01:57:31;;;;;;;;;;;;;;;21.76;20.42;99838.09;4999992;28;1063;-72
2024/01/30 01:59:57;;;;;;;;;;;;;;;21.71;20.43;99843.31;4998711;28;1451;-72
2024/01/30 02:02:22;;;;;;;;;;;;;;;21.66;20.61;99830.38;5020288;28;1268;-73
2024/01/30 02:04:48;;;;;;;;;;;;;;;21.73;20.52;99813.38;5036330;28;922;-72
2024/01/30 02:07:13;;;;;;;;;;;;;;;21.56;20.93;99819.81;5019885;28;924;-72
2024/01/30 02:09:39;;;;;;;;;;;;;;;21.30;21.22;99818.13;5003258;28;1191;-72
2024/01/30 02:12:05;;;;;;;;;;;;;;;21.29;21.21;99834.25;5020584;28;1958;-72
2024/01/30 02:14:30;;;;;;;;;;;;;;;21.51;20.85;99820.22;5038463;28;1048;-73
2024/01/30 02:16:56;;;;;;;;;;;;;;;21.66;20.45;99830.38;5037403;28;961;-72
2024/01/30 02:19:22;;;;;;;;;;;;;;;21.63;20.84;99842.50;5037472;28;976;-72
2024/01/30 02:21:47;;;;;;;;;;;;;;;21.55;21.00;99821.00;5038577;28;1020;-72
2024/01/30 02:24:13;;;;;;;;;;;;;;;21.80;20.67;99832.41;5036899;28;1557;-72
2024/01/30 02:26:38;;;;;;;;;;;;;;;21.84;20.29;99814.19;5035661;28;1160;-72
2024/01/30 02:29:04;;;;;;;;;;;;;;;21.92;20.30;99820.69;5019062;28;1140;-72
2024/01/30 02:31:29;;;;;;;;;;;;;;;21.90;20.32;99813.78;5018663;28;1980;-72
2024/01/30 02:33:55;;;;;;;;;;;;;;;21.67;20.70;99823.50;5035361;28;965;-72
2024/01/30 02:36:20;;;;;;;;;;;;;;;21.46;20.98;99815.75;5019190;28;998;-72
2024/01/30 02:38:46;;;;;;;;;;;;;;;21.39;21.11;99820.56;5035738;28;980;-72
2024/01/30 02:41:12;;;;;;;;;;;;;;;21.61;20.77;99816.59;5002354;28;1082;-73
2024/01/30 02:43:37;;;;;;;;;;;;;;;21.67;20.45;99826.31;4999190;28;1331;-72
2024/01/30 02:46:03;;;;;;;;;;;;;;;21.94;20.46;99832.44;4982904;28;1054;-72
2024/01/30 02:48:28;;;;;;;;;;;;;;;21.82;20.35;99833.63;5015638;28;931;-71
2024/01/30 02:50:54;;;;;;;;;;;;;;;21.76;20.46;99832.41;4999215;28;1967;-72
2024/01/30 02:53:19;;;;;;;;;;;;;;;21.73;20.65;99835.22;4998890;28;1347;-72
2024/01/30 02:55:45;;;;;;;;;;;;;;;21.61;20.71;99841.28;4999182;28;1151;-72
2024/01/30 02:58:10;;;;;;;;;;;;;;;21.67;20.78;99848.97;5015540;28;962;-72
2024/01/30 03:00:36;;;;;;;;;;;;;;;21.65;20.87;99840.06;5015516;28;978;-72
2024/01/30 03:03:02;;;;;;;;;;;;;;;21.85;20.27;99841.31;4998993;28;1113;-72
2024/01/30 03:05:27;;;;;;;;;;;;;;;21.64;20.44;99835.63;4998845;28;1229;-72
2024/01/30 03:07:53;;;;;;;;;;;;;;;21.28;21.10;99838.31;4999118;28;1029;-72
2024/01/30 03:10:18;;;;;;;;;;;;;;;21.02;21.35;99835.75;5015311;28;1984;-72
2024/01/30 03:12:44;;;;;;;;;;;;;;;21.55;20.72;99835.19;5015226;28;1146;-73
2024/01/30 03:15:09;;;;;;;;;;;;;;;21.73;20.79;99836.03;5025328;28;1038;-72
2024/01/30 03:17:36;;;;;;;;;;;;;;;21.56;20.95;99842.50;5037627;28;914;-72
2024/01/30 03:20:03;;;;;;;;;;;;;;;21.63;20.84;99842.50;4998737;28;989;-72
2024/01/30 03:22:29;;;;;;;;;;;;;;;21.65;20.49;99840.06;5015058;28;996;-72
2024/01/30 03:24:54;;;;;;;;;;;;;;;21.64;20.80;99838.44;4998571;28;1060;-73
2024/01/30 03:27:20;;;;;;;;;;;;;;;21.58;20.94;99834.38;5014896;28;979;-72
2024/01/30 03:29:45;;;;;;;;;;;;;;;21.74;20.64;99843.31;4998340;28;1003;-73
2024/01/30 03:32:11;;;;;;;;;;;;;;;21.76;20.37;99829.59;4998484;28;1930;-72
2024/01/30 03:34:36;;;;;;;;;;;;;;;21.72;20.72;99842.94;5014938;28;1034;-73
2024/01/30 03:37:02;;;;;;;;;;;;;;;21.85;20.45;99855.47;4998289;28;1001;-72
2024/01/30 03:39:27;;;;;;;;;;;;;;;21.12;21.04;99856.84;5014559;28;1056;-72
2024/01/30 03:41:53;;;;;;;;;;;;;;;21.19;21.06;99857.69;5014763;28;954;-73
2024/01/30 03:44:18;;;;;;;;;;;;;;;21.59;20.66;99847.34;5014277;28;1010;-72
2024/01/30 03:46:44;;;;;;;;;;;;;;;21.83;20.63;99840.13;4998601;28;1039;-72
2024/01/30 03:49:09;;;;;;;;;;;;;;;21.44;20.66;99834.34;5014786;28;1025;-72
2024/01/30 03:51:35;;;;;;;;;;;;;;;21.77;20.33;99836.88;5031017;28;1910;-72
2024/01/30 03:54:00;;;;;;;;;;;;;;;21.51;20.94;99840.03;5035523;28;924;-72
2024/01/30 03:56:26;;;;;;;;;;;;;;;21.61;20.75;99833.59;5035334;28;1214;-72
2024/01/30 03:58:51;;;;;;;;;;;;;;;21.62;20.77;99823.88;5035622;28;991;-72
2024/01/30 04:01:17;;;;;;;;;;;;;;;21.72;20.51;99831.59;5036459;28;913;-72
2024/01/30 04:03:43;;;;;;;;;;;;;;;21.82;20.45;99839.31;5018918;28;1178;-72
2024/01/30 04:06:09;;;;;;;;;;;;;;;21.44;20.85;99837.16;5002346;28;1243;-72
2024/01/30 04:08:35;;;;;;;;;;;;;;;21.38;21.14;99844.44;5017936;28;926;-72
2024/01/30 04:11:05;;;;;;;;;;;;;;;21.48;20.54;99841.63;5034930;28;1939;-72
2024/01/30 04:13:31;;;;;;;;;;;;;;;21.38;20.81;99848.06;5022257;28;1193;-73
2024/01/30 04:15:57;;;;;;;;;;;;;;;21.43;21.07;99838.38;4997618;28;1148;-72
2024/01/30 04:18:22;;;;;;;;;;;;;;;21.43;20.87;99839.19;5014188;28;1076;-72
2024/01/30 04:20:48;;;;;;;;;;;;;;;21.56;20.65;99836.81;4997440;28;1186;-73
2024/01/30 04:23:13;;;;;;;;;;;;;;;21.81;20.45;99832.03;5014082;28;999;-73
2024/01/30 04:25:39;;;;;;;;;;;;;;;21.74;20.37;99843.31;4981268;28;1249;-73
2024/01/30 04:28:04;;;;;;;;;;;;;;;21.74;20.39;99839.69;5013937;28;1030;-73
2024/01/30 04:30:30;;;;;;;;;;;;;;;21.92;20.45;99853.91;4997129;28;1977;-74
2024/01/30 04:32:55;;;;;;;;;;;;;;;21.72;20.79;99857.09;4997388;28;1282;-74
2024/01/30 04:35:23;;;;;;;;;;;;;;;21.74;20.63;99854.66;4997629;28;959;-74
2024/01/30 04:37:48;;;;;;;;;;;;;;;21.80;20.57;99836.03;4997569;28;1007;-74
2024/01/30 04:40:14;;;;;;;;;;;;;;;21.68;20.76;99838.47;5013746;28;1058;-74
2024/01/30 04:42:39;;;;;;;;;;;;;;;21.81;20.53;99848.19;4977674;28;1020;-74
2024/01/30 04:45:05;;;;;;;;;;;;;;;21.73;20.46;99836.03;4994155;28;939;-74
2024/01/30 04:47:31;;;;;;;;;;;;;;;21.75;20.40;99839.28;4961640;28;1228;-74
2024/01/30 04:49:56;;;;;;;;;;;;;;;21.81;20.60;99837.69;5010326;28;1176;-74
2024/01/30 04:52:22;;;;;;;;;;;;;;;21.75;20.56;99842.09;4993893;28;1906;-74
2024/01/30 04:54:47;;;;;;;;;;;;;;;21.57;20.94;99849.78;4977487;28;1076;-74
2024/01/30 04:57:13;;;;;;;;;;;;;;;21.18;20.88;99856.06;4994110;28;1063;-74
2024/01/30 04:59:38;;;;;;;;;;;;;;;21.39;20.85;99857.38;4993986;28;1002;-75
2024/01/30 05:02:04;;;;;;;;;;;;;;;21.66;20.83;99858.69;4977777;28;783;-74
2024/01/30 05:04:29;;;;;;;;;;;;;;;21.87;20.31;99854.28;4954970;29;1136;-74
2024/01/30 05:06:55;;;;;;;;;;;;;;;21.67;20.78;99848.97;4955239;29;861;-75
2024/01/30 05:09:21;;;;;;;;;;;;;;;21.95;20.30;99853.88;4954663;29;995;-75
2024/01/30 05:11:46;;;;;;;;;;;;;;;21.90;20.30;99850.63;4955054;29;1910;-74
2024/01/30 05:14:12;;;;;;;;;;;;;;;21.54;20.67;99844.91;4939086;29;1141;-74
2024/01/30 05:16:38;;;;;;;;;;;;;;;21.75;20.57;99833.59;4955097;29;767;-74
2024/01/30 05:19:03;;;;;;;;;;;;;;;21.95;20.52;99830.41;4959132;28;972;-74
2024/01/30 05:21:29;;;;;;;;;;;;;;;21.85;20.31;99827.16;5013274;28;748;-74
2024/01/30 05:23:54;;;;;;;;;;;;;;;21.85;20.42;99835.66;4996503;28;909;-74
2024/01/30 05:26:20;;;;;;;;;;;;;;;21.52;20.71;99833.16;5012863;28;1217;-74
2024/01/30 05:28:45;;;;;;;;;;;;;;;21.45;20.96;99838.78;4997032;28;1214;-74
2024/01/30 05:31:11;;;;;;;;;;;;;;;21.56;20.94;99834.00;5012917;28;1918;-74
2024/01/30 05:33:36;;;;;;;;;;;;;;;21.55;20.68;99836.00;5013178;28;811;-74
2024/01/30 05:36:02;;;;;;;;;;;;;;;21.74;20.62;99832.00;5043613;28;779;-74
2024/01/30 05:38:31;;;;;;;;;;;;;;;21.60;20.58;99831.94;4996112;28;946;-74
2024/01/30 05:41:00;;;;;;;;;;;;;;;21.74;20.77;99837.66;4996944;28;1030;-74
2024/01/30 05:43:25;;;;;;;;;;;;;;;21.56;20.76;99843.28;4980853;28;784;-74
2024/01/30 05:45:51;;;;;;;;;;;;;;;21.72;20.57;99842.94;4980611;28;819;-74
2024/01/30 05:48:17;;;;;;;;;;;;;;;21.87;20.44;99851.47;4996862;28;807;-74
2024/01/30 05:50:42;;;;;;;;;;;;;;;21.84;20.50;99847.41;4996784;28;1989;-74
2024/01/30 05:53:08;;;;;;;;;;;;;;;21.76;20.42;99857.91;4980246;28;811;-75
2024/01/30 05:55:33;;;;;;;;;;;;;;;21.39;21.17;99861.03;4980467;28;1177;-74
2024/01/30 05:57:59;;;;;;;;;;;;;;;21.36;20.91;99875.19;4996608;28;925;-74
2024/01/30 06:00:24;;;;;;;;;;;;;;;21.65;20.73;99876.88;5016269;28;1236;-75
2024/01/30 06:02:50;;;;;;;;;;;;;;;21.59;20.78;99881.31;5016133;28;1140;-75
2024/01/30 06:05:15;;;;;;;;;;;;;;;21.72;20.78;99879.75;5032595;28;849;-74
2024/01/30 06:07:41;;;;;;;;;;;;;;;21.64;20.71;99880.94;5001181;28;1590;-74
2024/01/30 06:10:07;;;;;;;;;;;;;;;21.53;20.92;99875.25;5019514;28;1176;-75
2024/01/30 06:12:33;;;;;;;;;;;;;;;21.28;21.14;99883.59;5020004;28;1906;-74
2024/01/30 06:14:58;;;;;;;;;;;;;;;21.71;20.64;99900.81;5019588;28;1411;-75
2024/01/30 06:17:24;;;;;;;;;;;;;;;21.47;21.05;99907.19;5036041;28;720;-74
2024/01/30 06:19:49;;;;;;;;;;;;;;;21.32;21.22;99912.78;5036110;28;773;-74
2024/01/30 06:22:15;;;;;;;;;;;;;;;21.29;21.31;99919.19;5019482;28;784;-74
2024/01/30 06:24:41;;;;;;;;;;;;;;;21.39;21.18;99934.66;5003006;28;1223;-74
2024/01/30 06:27:06;;;;;;;;;;;;;;;21.63;20.64;99933.16;5035913;28;872;-74
2024/01/30 06:29:32;;;;;;;;;;;;;;;21.40;21.30;99932.63;5019660;28;740;-74
2024/01/30 06:31:57;;;;;;;;;;;;;;;21.58;20.79;99925.03;5023532;28;1898;-74
2024/01/30 06:34:23;;;;;;;;;;;;;;;21.80;20.34;99926.72;5057041;28;743;-74
2024/01/30 06:36:48;;;;;;;;;;;;;;;21.79;20.54;99929.97;5022436;28;1056;-74
2024/01/30 06:39:14;;;;;;;;;;;;;;;21.70;20.82;99936.00;5056802;28;782;-74
2024/01/30 06:41:39;;;;;;;;;;;;;;;21.77;20.67;99933.19;5035851;28;970;-74
2024/01/30 06:44:06;;;;;;;;;;;;;;;21.73;20.61;99943.72;5018764;28;803;-74
2024/01/30 06:46:32;;;;;;;;;;;;;;;21.60;20.82;99939.59;5002983;28;1005;-75
2024/01/30 06:48:58;;;;;;;;;;;;;;;21.63;20.78;99938.81;5018743;28;751;-75
2024/01/30 06:51:23;;;;;;;;;;;;;;;21.66;20.67;99938.03;5018718;28;1970;-74
2024/01/30 06:53:49;;;;;;;;;;;;;;;21.61;20.81;99934.78;5035543;28;770;-75
2024/01/30 06:56:14;;;;;;;;;;;;;;;21.58;20.82;99936.38;5018969;28;1277;-75
2024/01/30 06:58:40;;;;;;;;;;;;;;;21.51;21.05;99936.34;5019127;28;798;-74
2024/01/30 07:01:06;;;;;;;;;;;;;;;21.54;20.94;99941.19;5018554;28;1445;-75
2024/01/30 07:03:31;;;;;;;;;;;;;;;21.41;21.05;99937.09;5018767;28;966;-74
2024/01/30 07:05:57;;;;;;;;;;;;;;;21.33;21.14;99937.06;5035149;28;997;-74
2024/01/30 07:08:22;;;;;;;;;;;;;;;21.65;20.72;99941.25;5018483;28;1238;-74
2024/01/30 07:10:48;;;;;;;;;;;;;;;21.28;21.07;99934.56;5002036;28;1910;-74
2024/01/30 07:13:16;;;;;;;;;;;;;;;21.45;21.22;99937.91;5033900;28;1173;-75
2024/01/30 07:15:42;;;;;;;;;;;;;;;21.57;20.86;99931.91;5039533;28;928;-73
2024/01/30 07:18:07;;;;;;;;;;;;;;;21.77;20.63;99927.53;5055023;28;902;-74
2024/01/30 07:20:33;;;;;;;;;;;;;;;21.71;20.84;99933.97;5038779;28;806;-74
2024/01/30 07:22:58;;;;;;;;;;;;;;;21.83;20.52;99942.94;5055793;28;790;-74
2024/01/30 07:25:28;;;;;;;;;;;;;;;21.73;20.82;99949.38;5055737;28;1083;-74
2024/01/30 07:27:54;;;;;;;;;;;;;;;21.47;21.24;99958.16;5057280;28;743;-74
2024/01/30 07:30:20;;;;;;;;;;;;;;;21.41;20.97;99948.44;5014602;28;1902;-74
2024/01/30 07:32:46;;;;;;;;;;;;;;;21.78;20.90;99934.81;4998454;28;1075;-74
2024/01/30 07:35:11;;;;;;;;;;;;;;;21.89;20.65;99939.72;4982322;28;937;-74
2024/01/30 07:37:37;;;;;;;;;;;;;;;21.76;20.73;99937.25;5014958;28;823;-74
2024/01/30 07:40:03;;;;;;;;;;;;;;;21.90;20.71;99918.66;4978790;28;1337;-75
2024/01/30 07:42:28;;;;;;;;;;;;;;;21.85;20.45;99940.50;4995192;28;906;-74
2024/01/30 07:44:54;;;;;;;;;;;;;;;21.91;20.54;99932.41;4994936;28;879;-74
2024/01/30 07:47:19;;;;;;;;;;;;;;;21.69;20.96;99931.53;4975326;28;1092;-74
2024/01/30 07:49:45;;;;;;;;;;;;;;;21.79;20.70;99925.09;4959215;28;896;-74
2024/01/30 07:52:10;;;;;;;;;;;;;;;21.81;20.81;99911.38;4975298;28;1989;-74
2024/01/30 07:54:39;;;;;;;;;;;;;;;21.72;20.74;99902.44;4959395;28;752;-74
2024/01/30 07:57:04;;;;;;;;;;;;;;;21.36;21.09;99906.34;4959476;28;1302;-75
2024/01/30 07:59:30;;;;;;;;;;;;;;;21.25;21.45;99926.88;4959234;28;1453;-74
2024/01/30 08:01:55;;;;;;;;;;;;;;;21.52;20.87;99926.63;4993084;28;1080;-74
2024/01/30 08:04:21;;;;;;;;;;;;;;;21.67;20.74;99938.84;4997825;28;810;-75
2024/01/30 08:06:46;;;;;;;;;;;;;;;21.76;20.77;99936.41;5013934;28;1222;-74
2024/01/30 08:09:12;;;;;;;;;;;;;;;21.80;20.64;99938.06;4997720;28;1112;-75
2024/01/30 08:11:37;;;;;;;;;;;;;;;21.69;20.95;99942.88;4981393;28;2278;-74
2024/01/30 08:14:03;;;;;;;;;;;;;;;21.85;20.79;99934.84;5014185;28;1116;-74
2024/01/30 08:16:28;;;;;;;;;;;;;;;21.47;20.94;99944.00;5014087;28;806;-74
2024/01/30 08:18:57;;;;;;;;;;;;;;;21.51;21.10;99931.50;5028121;28;871;-74
2024/01/30 08:21:22;;;;;;;;;;;;;;;21.23;21.14;99937.78;5038019;28;782;-74
2024/01/30 08:23:48;;;;;;;;;;;;;;;21.39;21.10;99933.84;5054656;28;755;-74
2024/01/30 08:26:13;;;;;;;;;;;;;;;21.58;21.09;99936.38;5037951;28;1194;-74
2024/01/30 08:28:39;;;;;;;;;;;;;;;21.65;20.80;99936.38;5054664;28;1125;-74
2024/01/30 08:31:04;;;;;;;;;;;;;;;21.53;20.93;99934.72;5054362;28;1989;-74
2024/01/30 08:33:30;;;;;;;;;;;;;;;21.66;20.84;99934.34;5037817;28;1258;-74
2024/01/30 08:35:55;;;;;;;;;;;;;;;21.77;20.76;99938.88;5016870;28;1290;-74
2024/01/30 08:38:21;;;;;;;;;;;;;;;21.54;21.06;99941.19;5017172;28;853;-74
2024/01/30 08:40:46;;;;;;;;;;;;;;;21.21;21.44;99945.88;5017088;28;963;-74
2024/01/30 08:43:12;;;;;;;;;;;;;;;20.96;21.92;99944.88;5016695;28;774;-74
2024/01/30 08:45:38;;;;;;;;;;;;;;;21.46;21.16;99945.22;5016650;28;1194;-74
2024/01/30 08:48:03;;;;;;;;;;;;;;;21.47;21.09;99935.50;5016980;28;793;-74
2024/01/30 08:50:29;;;;;;;;;;;;;;;21.61;20.98;99946.91;5033210;28;1979;-74
2024/01/30 08:52:55;;;;;;;;;;;;;;;21.33;21.42;99954.03;5000570;28;814;-74
2024/01/30 08:55:21;;;;;;;;;;;;;;;21.78;20.64;99951.81;5032945;28;790;-74
2024/01/30 08:57:46;;;;;;;;;;;;;;;21.64;20.91;99946.09;5000346;28;1451;-74
2024/01/30 09:00:12;;;;;;;;;;;;;;;21.78;20.88;99949.00;5016685;28;838;-74
2024/01/30 09:02:37;;;;;;;;;;;;;;;22.06;20.33;99948.25;4983791;28;1223;-75
2024/01/30 09:05:03;;;;;;;;;;;;;;;21.79;20.59;99947.78;5033209;28;759;-74
2024/01/30 09:07:28;;;;;;;;;;;;;;;21.68;20.87;99946.13;5015406;28;924;-74
2024/01/30 09:09:54;;;;;;;;;;;;;;;21.88;20.67;99938.09;5055432;28;862;-75
2024/01/30 09:12:20;;;;;;;;;;;;;;;21.90;20.57;99938.50;5054911;28;1980;-74
2024/01/30 09:14:45;;;;;;;;;;;;;;;21.84;20.92;99936.06;5037617;28;794;-75
2024/01/30 09:17:11;;;;;;;;;;;;;;;21.57;20.82;99946.88;5055090;28;838;-74
2024/01/30 09:19:37;;;;;;;;;;;;;;;21.63;20.84;99943.66;5055214;28;779;-74
2024/01/30 09:22:03;;;;;;;;;;;;;;;21.65;21.05;99953.38;5055396;28;739;-74
2024/01/30 09:24:28;;;;;;;;;;;;;;;21.60;20.87;99953.75;5053713;28;1187;-74
2024/01/30 09:26:54;;;;;;;;;;;;;;;21.21;21.24;99948.69;5054126;28;775;-74
2024/01/30 09:29:19;;;;;;;;;;;;;;;21.23;21.62;99937.78;5053884;28;794;-75
2024/01/30 09:31:45;;;;;;;;;;;;;;;21.38;21.22;99943.56;5037363;28;1981;-74
2024/01/30 09:34:10;;;;;;;;;;;;;;;21.71;20.90;99929.16;5037282;28;834;-74
2024/01/30 09:36:36;;;;;;;;;;;;;;;21.39;21.28;99933.84;5055394;28;745;-74
2024/01/30 09:39:02;;;;;;;;;;;;;;;21.65;20.99;99919.38;5053905;28;759;-74
2024/01/30 09:41:27;;;;;;;;;;;;;;;21.73;20.99;99918.22;5037348;28;1680;-74
2024/01/30 09:43:53;;;;;;;;;;;;;;;21.57;20.99;99929.09;5058496;28;852;-75
2024/01/30 09:46:18;;;;;;;;;;;;;;;21.74;20.77;99931.16;5041195;28;770;-74
2024/01/30 09:48:46;;;;;;;;;;;;;;;21.67;21.12;99919.81;5040790;28;906;-74
2024/01/30 09:51:11;;;;;;;;;;;;;;;21.84;20.72;99904.06;5024801;28;1976;-74
2024/01/30 09:53:37;;;;;;;;;;;;;;;21.95;20.57;99904.91;5057902;28;783;-74
2024/01/30 09:56:03;;;;;;;;;;;;;;;21.75;20.77;99906.47;5016284;28;1135;-74
2024/01/30 09:58:28;;;;;;;;;;;;;;;21.44;21.20;99903.13;5000354;28;1176;-74
2024/01/30 10:00:54;;;;;;;;;;;;;;;21.56;21.09;99910.47;4967504;28;890;-74
2024/01/30 10:03:19;;;;;;;;;;;;;;;21.78;20.75;99912.16;5000056;28;1178;-74
2024/01/30 10:05:50;;;;;;;;;;;;;;;21.68;20.90;99907.25;5016663;28;963;-74
2024/01/30 10:08:15;;;;;;;;;;;;;;;22.04;20.74;99907.34;5000131;28;1065;-74
2024/01/30 10:10:41;;;;;;;;;;;;;;;21.67;21.12;99899.97;4983516;28;1902;-74
2024/01/30 10:13:06;;;;;;;;;;;;;;;21.24;21.22;99913.94;4999935;28;787;-74
2024/01/30 10:15:32;;;;;;;;;;;;;;;21.49;21.16;99910.41;5000015;28;827;-74
2024/01/30 10:17:57;;;;;;;;;;;;;;;21.42;21.13;99916.88;4999691;28;1203;-74
2024/01/30 10:20:24;;;;;;;;;;;;;;;21.50;21.08;99914.88;5016064;28;774;-74
2024/01/30 10:22:50;;;;;;;;;;;;;;;21.62;21.04;99916.56;4999476;28;932;-74
2024/01/30 10:25:16;;;;;;;;;;;;;;;21.87;20.59;99913.81;4999657;28;1300;-74
2024/01/30 10:27:41;;;;;;;;;;;;;;;21.67;21.06;99919.00;5011329;28;1121;-74
2024/01/30 10:30:07;;;;;;;;;;;;;;;21.49;21.15;99897.06;4999662;28;925;-74
2024/01/30 10:32:33;;;;;;;;;;;;;;;21.66;21.11;99903.19;5015975;28;1902;-74
2024/01/30 10:34:58;;;;;;;;;;;;;;;21.69;20.73;99900.38;4995875;28;1026;-74
2024/01/30 10:37:25;;;;;;;;;;;;;;;21.43;21.51;99889.38;4979868;28;793;-74
2024/01/30 10:39:50;;;;;;;;;;;;;;;21.52;21.25;99889.81;4980011;28;901;-74
2024/01/30 10:42:17;;;;;;;;;;;;;;;21.59;20.88;99893.47;4937912;29;989;-74
2024/01/30 10:44:55;;;;;;;;;;;;;;;21.47;21.15;99896.66;4922364;29;836;-74
2024/01/30 10:47:22;;;;;;;;;;;;;;;21.46;21.32;99899.91;4938150;29;913;-74
2024/01/30 10:49:47;;;;;;;;;;;;;;;21.69;20.80;99897.53;4938115;29;816;-75
2024/01/30 10:52:13;;;;;;;;;;;;;;;21.68;20.96;99901.59;4937920;29;1964;-74
2024/01/30 10:54:39;;;;;;;;;;;;;;;21.64;21.13;99894.28;4899410;29;980;-74
2024/01/30 10:57:05;;;;;;;;;;;;;;;21.79;21.13;99902.44;4862740;29;1042;-75
2024/01/30 10:59:31;;;;;;;;;;;;;;;21.74;21.08;99905.66;4847052;29;1215;-74
2024/01/30 11:01:57;;;;;;;;;;;;;;;21.78;20.89;99900.81;4862165;29;1004;-74
2024/01/30 11:04:23;;;;;;;;;;;;;;;21.78;21.00;99895.16;4831978;29;895;-74
2024/01/30 11:06:49;;;;;;;;;;;;;;;21.76;20.71;99897.59;4846780;29;1490;-75
2024/01/30 11:09:17;;;;;;;;;;;;;;;21.43;21.36;99895.03;4828751;29;1324;-74
2024/01/30 11:11:51;;;;;;;;;;;;;;;21.50;21.34;99892.22;4836255;29;1907;-74
2024/01/30 11:14:22;;;;;;;;;;;;;;;21.41;21.50;99886.13;4850213;29;1583;-74
2024/01/30 11:16:49;;;;;;;;;;;;;;;21.77;20.86;99893.53;4881417;29;1022;-74
2024/01/30 11:19:14;;;;;;;;;;;;;;;21.60;20.93;99880.09;4880972;29;961;-74
2024/01/30 11:21:42;;;;;;;;;;;;;;;21.74;20.84;99880.16;4865189;29;979;-74
2024/01/30 11:24:08;;;;;;;;;;;;;;;21.76;20.70;99869.25;4880796;29;776;-74
2024/01/30 11:26:34;;;;;;;;;;;;;;;21.42;21.20;99870.75;4880375;29;1128;-75
2024/01/30 11:29:02;;;;;;;;;;;;;;;21.23;21.49;99881.16;4883028;29;1057;-74
2024/01/30 11:31:28;;;;;;;;;;;;;;;21.25;21.50;99872.28;4874067;29;1903;-74
2024/01/30 11:33:54;;;;;;;;;;;;;;;21.67;21.03;99860.31;4904435;29;1110;-74
2024/01/30 11:36:20;;;;;;;;;;;;;;;21.75;21.05;99861.94;4902403;29;831;-74
2024/01/30 11:38:46;;;;;;;;;;;;;;;21.62;20.98;99863.53;4936288;29;920;-75
2024/01/30 11:41:12;;;;;;;;;;;;;;;21.80;20.77;99864.38;4924421;29;772;-74
2024/01/30 11:43:38;;;;;;;;;;;;;;;21.56;21.01;99853.81;4940303;29;1033;-74
2024/01/30 11:46:05;;;;;;;;;;;;;;;21.77;20.89;99859.53;4954318;28;1251;-75
2024/01/30 11:48:31;;;;;;;;;;;;;;;21.91;20.69;99853.06;4998281;28;925;-74
2024/01/30 11:50:56;;;;;;;;;;;;;;;21.87;20.98;99845.78;4998286;28;1965;-74
2024/01/30 11:53:22;;;;;;;;;;;;;;;21.58;21.29;99851.38;4998244;28;827;-74
2024/01/30 11:55:50;;;;;;;;;;;;;;;21.43;21.33;99855.38;4981863;28;1518;-74
2024/01/30 11:58:16;;;;;;;;;;;;;;;21.55;21.04;99838.00;4998322;28;775;-74
2024/01/30 12:00:42;;;;;;;;;;;;;;;21.58;21.12;99851.38;5047428;28;817;-74
2024/01/30 12:03:08;;;;;;;;;;;;;;;21.58;21.40;99845.72;5056248;28;818;-74
2024/01/30 12:05:33;;;;;;;;;;;;;;;21.72;21.01;99845.75;5037722;28;763;-74
2024/01/30 12:07:59;;;;;;;;;;;;;;;21.81;21.01;99843.34;5038448;28;802;-74
2024/01/30 12:10:25;;;;;;;;;;;;;;;21.57;21.09;99836.41;5054881;28;790;-74
2024/01/30 12:12:50;;;;;;;;;;;;;;;21.55;21.12;99829.50;5038810;28;1980;-74
2024/01/30 12:15:16;;;;;;;;;;;;;;;21.79;20.87;99828.75;5038251;28;1469;-74
2024/01/30 12:17:42;;;;;;;;;;;;;;;21.92;20.71;99823.53;5014018;28;989;-75
2024/01/30 12:20:11;;;;;;;;;;;;;;;21.67;20.93;99843.31;4981407;28;1051;-74
2024/01/30 12:22:38;;;;;;;;;;;;;;;21.79;20.73;99839.28;4981108;28;773;-75
2024/01/30 12:25:24;;;;;;;;;;;;;;;21.61;21.01;99836.44;4981380;28;1569;-74
2024/01/30 12:27:50;;;;;;;;;;;;;;;21.21;21.44;99843.94;5013717;28;989;-74
2024/01/30 12:30:15;;;;;;;;;;;;;;;21.58;21.14;99834.38;4997707;28;826;-74
2024/01/30 12:32:44;;;;;;;;;;;;;;;21.44;21.15;99837.16;4997221;28;1914;-75
2024/01/30 12:35:10;;;;;;;;;;;;;;;21.62;21.27;99835.22;4997897;28;818;-75
2024/01/30 12:37:35;;;;;;;;;;;;;;;21.82;20.79;99839.31;5013373;28;922;-74
2024/01/30 12:40:01;;;;;;;;;;;;;;;21.73;20.90;99830.38;5013911;28;767;-74
2024/01/30 12:42:27;;;;;;;;;;;;;;;21.53;21.31;99837.63;4997321;28;962;-74
2024/01/30 12:44:53;;;;;;;;;;;;;;;21.63;21.07;99834.00;4997425;28;684;-74
2024/01/30 12:47:18;;;;;;;;;;;;;;;21.57;21.07;99827.91;4997078;28;815;-74
2024/01/30 12:49:44;;;;;;;;;;;;;;;21.26;21.65;99835.06;5049630;28;811;-75
2024/01/30 12:52:16;;;;;;;;;;;;;;;21.59;20.98;99838.84;5054330;28;1905;-75
2024/01/30 12:54:41;;;;;;;;;;;;;;;21.05;21.66;99840.66;5021285;28;1093;-74